Time;durP1;ratioP1;P1;durP2;ratioP2;P2;SDS_P1;SDS_P2;PMS_P1;PMS_P2;Temp;Humidity;BMP_temperature;BMP_pressure;BME280_temperature;BME280_humidity;BME280_pressure;Samples;Min_cycle;Max_cycle;Signal;HPM_P1;HPM_P2
2023/02/14 00:00:56;;;;;;;7.33;3.70;;;4.70;97.30;;;;;;5060007;28;20435;-83
2023/02/14 00:03:21;;;;;;;7.23;5.50;;;4.70;97.30;;;;;;5059069;28;20178;-84
2023/02/14 00:05:48;;;;;;;8.53;6.60;;;4.70;97.30;;;;;;5059401;28;20281;-84
2023/02/14 00:08:14;;;;;;;9.00;3.93;;;4.60;97.30;;;;;;5058878;28;20194;-84
2023/02/14 00:10:39;;;;;;;8.13;3.67;;;4.60;97.30;;;;;;5058716;28;20425;-84
2023/02/14 00:13:05;;;;;;;3.10;2.90;;;4.70;97.30;;;;;;5058773;28;21111;-83
2023/02/14 00:15:30;;;;;;;5.93;3.30;;;4.70;97.30;;;;;;5059044;28;20419;-84
2023/02/14 00:17:59;;;;;;;11.40;5.80;;;4.70;97.30;;;;;;5059194;28;20269;-83
2023/02/14 00:20:27;;;;;;;6.27;4.77;;;4.70;97.30;;;;;;5059593;28;20168;-84
2023/02/14 00:22:52;;;;;;;4.90;4.03;;;4.70;97.30;;;;;;5053789;28;20500;-84
2023/02/14 00:25:18;;;;;;;7.63;5.33;;;4.70;97.30;;;;;;5059144;28;20457;-84
2023/02/14 00:27:43;;;;;;;5.87;4.47;;;4.70;97.30;;;;;;5059214;28;20684;-84
2023/02/14 00:30:12;;;;;;;9.30;7.00;;;4.70;97.30;;;;;;5058666;28;20205;-84
2023/02/14 00:32:38;;;;;;;3.43;2.37;;;4.70;97.30;;;;;;5059196;28;20179;-84
2023/02/14 00:35:05;;;;;;;4.50;4.20;;;4.70;97.30;;;;;;5058339;28;20524;-84
2023/02/14 00:37:31;;;;;;;6.00;5.70;;;4.70;97.30;;;;;;5067682;28;20878;-84
2023/02/14 00:39:57;;;;;;;7.40;4.50;;;4.70;97.30;;;;;;5058251;28;20421;-84
2023/02/14 00:42:22;;;;;;;6.07;4.50;;;4.70;97.30;;;;;;5059298;28;20440;-84
2023/02/14 00:44:47;;;;;;;11.07;3.53;;;4.70;97.30;;;;;;5076486;28;20194;-83
2023/02/14 00:47:13;;;;;;;4.80;3.30;;;4.70;97.30;;;;;;5075487;28;20256;-84
2023/02/14 00:49:38;;;;;;;3.30;3.10;;;4.70;97.30;;;;;;5050767;28;20183;-84
2023/02/14 00:52:04;;;;;;;9.70;5.80;;;4.70;97.30;;;;;;5059314;28;20673;-84
2023/02/14 00:54:29;;;;;;;7.90;5.20;;;4.70;97.30;;;;;;5050719;28;20190;-84
2023/02/14 00:56:55;;;;;;;7.30;4.07;;;4.80;97.30;;;;;;5057938;28;20217;-84
2023/02/14 00:59:20;;;;;;;4.27;3.37;;;4.80;97.30;;;;;;5057025;28;20183;-84
2023/02/14 01:01:46;;;;;;;7.20;5.73;;;4.70;97.30;;;;;;5075004;28;20608;-84
2023/02/14 01:04:11;;;;;;;16.43;8.10;;;4.70;97.30;;;;;;5075525;28;20191;-84
2023/02/14 01:06:37;;;;;;;13.83;6.23;;;4.70;97.30;;;;;;5057386;28;20207;-83
2023/02/14 01:09:03;;;;;;;4.97;4.67;;;4.70;97.30;;;;;;5057680;28;20549;-84
2023/02/14 01:11:28;;;;;;;6.00;5.30;;;4.80;97.30;;;;;;5058958;28;20228;-84
2023/02/14 01:13:56;;;;;;;14.47;7.97;;;4.80;97.30;;;;;;5060218;28;20481;-84
2023/02/14 01:16:23;;;;;;;7.97;5.03;;;4.80;97.30;;;;;;5058924;28;20207;-84
2023/02/14 01:18:50;;;;;;;15.07;7.10;;;4.80;97.30;;;;;;5059046;28;20493;-84
2023/02/14 01:21:27;;;;;;;13.93;3.53;;;4.80;97.30;;;;;;5059304;28;20417;-83
2023/02/14 01:23:55;;;;;;;6.60;4.87;;;4.80;97.30;;;;;;5058575;28;20806;-84
2023/02/14 01:26:22;;;;;;;6.97;6.57;;;4.80;97.30;;;;;;5057621;28;20543;-84
2023/02/14 01:28:48;;;;;;;10.90;4.60;;;4.80;97.30;;;;;;5056477;28;20495;-84
2023/02/14 01:31:20;;;;;;;22.03;6.57;;;4.80;97.30;;;;;;5056892;28;20798;-84
2023/02/14 01:33:47;;;;;;;8.37;6.90;;;4.80;97.30;;;;;;5056966;28;20782;-84
2023/02/14 01:36:23;;;;;;;26.67;10.27;;;4.80;97.30;;;;;;5056152;28;20438;-83
2023/02/14 01:38:55;;;;;;;9.90;5.33;;;4.80;97.30;;;;;;5056935;28;20676;-84
2023/02/14 01:41:22;;;;;;;5.87;4.77;;;4.90;97.30;;;;;;5055859;28;20417;-84
2023/02/14 01:43:55;;;;;;;11.17;6.07;;;4.90;97.30;;;;;;5057145;28;20414;-84
2023/02/14 01:46:22;;;;;;;2.77;2.57;;;4.90;97.30;;;;;;5057002;28;20460;-83
2023/02/14 01:48:48;;;;;;;17.13;4.27;;;4.90;97.30;;;;;;5057101;28;20809;-84
2023/02/14 01:51:17;;;;;;;12.63;7.37;;;4.90;97.30;;;;;;5059929;28;20448;-83
2023/02/14 01:53:43;;;;;;;6.20;4.30;;;5.00;97.30;;;;;;5080242;28;20425;-83
2023/02/14 01:56:13;;;;;;;6.43;3.03;;;5.00;97.30;;;;;;5061600;28;20467;-84
2023/02/14 01:58:45;;;;;;;7.20;3.97;;;5.00;97.30;;;;;;5061944;28;20203;-84
2023/02/14 02:01:16;;;;;;;6.33;5.60;;;4.90;97.30;;;;;;5061346;28;20508;-82
2023/02/14 02:03:54;;;;;;;15.57;6.43;;;4.90;97.30;;;;;;5061450;28;20449;-83
2023/02/14 02:06:47;;;;;;;5.23;3.47;;;4.90;97.30;;;;;;5059481;28;20437;-84
2023/02/14 02:09:32;;;;;;;9.40;6.00;;;4.90;97.30;;;;;;5061575;28;20440;-83
2023/02/14 02:11:59;;;;;;;24.90;5.87;;;4.90;97.30;;;;;;5079015;28;20420;-84
2023/02/14 02:14:24;;;;;;;7.40;5.67;;;4.90;97.30;;;;;;5061372;28;20428;-84
2023/02/14 02:17:34;;;;;;;7.60;4.80;;;4.90;97.30;;;;;;5061058;28;20429;-84
2023/02/14 02:20:27;;;;;;;12.70;6.90;;;4.80;97.30;;;;;;5044847;28;20175;-84
2023/02/14 02:23:14;;;;;;;10.20;5.90;;;4.80;97.30;;;;;;5060423;28;20426;-84
2023/02/14 02:26:08;;;;;;;5.03;4.73;;;4.80;97.30;;;;;;5061466;28;20526;-84
2023/02/14 02:28:57;;;;;;;6.00;4.10;;;4.70;97.30;;;;;;5061305;28;20920;-83
2023/02/14 02:32:00;;;;;;;9.70;5.63;;;4.70;97.30;;;;;;5079480;28;20421;-84
2023/02/14 02:35:04;;;;;;;12.00;5.27;;;4.70;97.30;;;;;;5080535;28;20409;-84
2023/02/14 02:37:45;;;;;;;5.13;4.83;;;4.80;97.30;;;;;;5063084;28;20464;-85
2023/02/14 02:40:16;;;;;;;11.23;5.57;;;4.80;97.30;;;;;;5062362;28;20420;-82
2023/02/14 02:42:51;;;;;;;8.70;5.20;;;4.80;97.30;;;;;;5060853;28;20409;-84
2023/02/14 02:46:46;;;;;;;13.10;4.83;;;4.80;97.30;;;;;;5060743;28;20476;-84
2023/02/14 02:48:47;;;;;;;9.63;7.63;;;4.80;97.30;;;;;;5078454;28;20421;-84
2023/02/14 02:54:43;;;;;;;13.33;6.40;;;4.80;97.30;;;;;;5079170;28;20411;-84
2023/02/14 02:57:18;;;;;;;5.00;3.50;;;4.80;97.30;;;;;;5056970;28;20518;-83
2023/02/14 02:59:45;;;;;;;8.97;5.70;;;4.80;97.30;;;;;;5054696;28;20431;-83
2023/02/14 03:02:26;;;;;;;9.27;5.43;;;4.80;97.30;;;;;;5061375;28;20417;-83
2023/02/14 03:04:58;;;;;;;15.20;4.10;;;4.80;97.30;;;;;;5073102;28;20429;-85
2023/02/14 03:07:37;;;;;;;11.67;5.70;;;4.80;97.30;;;;;;5070327;28;20491;-84
2023/02/14 03:10:23;;;;;;;9.93;5.90;;;4.90;97.30;;;;;;5060323;28;20782;-84
2023/02/14 03:13:08;;;;;;;3.00;2.63;;;4.90;97.30;;;;;;5059248;28;20479;-84
2023/02/14 03:16:09;;;;;;;5.77;5.40;;;4.90;97.30;;;;;;5059861;28;20453;-84
2023/02/14 03:22:02;;;;;;;10.10;5.60;;;4.90;97.30;;;;;;5078792;28;20452;-84
2023/02/14 03:25:04;;;;;;;6.93;4.20;;;4.90;97.30;;;;;;5059440;28;20422;-84
2023/02/14 03:27:42;;;;;;;6.50;4.90;;;4.90;97.30;;;;;;5077982;28;20442;-84
2023/02/14 03:30:07;;;;;;;6.03;3.53;;;4.90;97.30;;;;;;5060180;28;20413;-84
2023/02/14 03:32:43;;;;;;;3.23;3.03;;;4.80;97.30;;;;;;5061598;28;20521;-84
2023/02/14 03:35:19;;;;;;;8.53;4.70;;;4.80;97.30;;;;;;5084527;28;20187;-84
2023/02/14 03:37:59;;;;;;;7.90;5.60;;;4.90;97.30;;;;;;5059736;28;20519;-84
2023/02/14 03:40:39;;;;;;;9.00;5.90;;;4.90;97.30;;;;;;5066432;28;20483;-83
2023/02/14 03:43:24;;;;;;;9.73;7.93;;;4.90;97.30;;;;;;5067358;28;20456;-84
2023/02/14 03:46:21;;;;;;;5.47;5.17;;;4.90;97.30;;;;;;5075538;28;20426;-84
2023/02/14 03:48:50;;;;;;;4.17;3.93;;;4.80;97.30;;;;;;5071674;28;20516;-84
2023/02/14 03:51:18;;;;;;;13.53;3.40;;;4.80;97.30;;;;;;5079557;28;20417;-84
2023/02/14 03:53:48;;;;;;;7.60;7.13;;;4.80;97.30;;;;;;5060939;28;20422;-84
2023/02/14 03:56:36;;;;;;;18.73;4.50;;;4.80;97.30;;;;;;5061141;28;20527;-84
2023/02/14 03:59:09;;;;;;;13.17;5.40;;;4.80;97.30;;;;;;5059179;28;20461;-84
2023/02/14 04:01:58;;;;;;;11.50;6.17;;;4.70;97.30;;;;;;5060526;28;20517;-84
2023/02/14 04:04:27;;;;;;;9.43;4.60;;;4.70;97.30;;;;;;5059535;28;20424;-84
2023/02/14 04:06:53;;;;;;;7.30;6.10;;;4.70;97.30;;;;;;5059113;28;20441;-84
2023/02/14 04:09:18;;;;;;;6.63;6.23;;;4.60;97.30;;;;;;5076822;28;20417;-84
2023/02/14 04:11:45;;;;;;;8.40;5.43;;;4.60;97.30;;;;;;5058846;28;20175;-84
2023/02/14 04:14:11;;;;;;;19.43;6.73;;;4.60;97.30;;;;;;5058489;28;20217;-83
2023/02/14 04:19:23;;;;;;;12.23;3.23;;;4.60;97.30;;;;;;5077445;28;20202;-85
2023/02/14 04:21:50;;;;;;;13.10;5.93;;;4.60;97.30;;;;;;5057883;28;20437;-83
2023/02/14 04:24:16;;;;;;;17.37;6.73;;;4.60;97.30;;;;;;5058146;28;20405;-84
2023/02/14 04:26:52;;;;;;;8.87;5.77;;;4.60;97.30;;;;;;5057706;28;20781;-83
2023/02/14 04:29:19;;;;;;;21.63;6.10;;;4.60;97.30;;;;;;5058022;28;20500;-84
2023/02/14 04:31:45;;;;;;;5.40;5.10;;;4.60;97.30;;;;;;5076925;28;20496;-84
2023/02/14 04:34:10;;;;;;;7.43;4.07;;;4.60;97.30;;;;;;5058065;28;20451;-83
2023/02/14 04:36:35;;;;;;;11.23;4.77;;;4.60;97.30;;;;;;5059444;28;20198;-84
2023/02/14 04:39:01;;;;;;;7.57;3.40;;;4.50;97.30;;;;;;5059682;28;20215;-85
2023/02/14 04:41:26;;;;;;;3.33;3.13;;;4.60;97.30;;;;;;5059247;28;20182;-84
2023/02/14 04:43:52;;;;;;;8.00;4.77;;;4.60;97.30;;;;;;5059166;28;20176;-84
2023/02/14 04:46:17;;;;;;;5.00;4.70;;;4.60;97.30;;;;;;5058874;28;20276;-84
2023/02/14 04:48:43;;;;;;;11.30;4.90;;;4.60;97.30;;;;;;5059316;28;20278;-84
2023/02/14 04:51:08;;;;;;;11.43;5.60;;;4.60;97.30;;;;;;5059904;28;20186;-84
2023/02/14 04:53:38;;;;;;;9.50;4.60;;;4.60;97.30;;;;;;5077263;28;20240;-84
2023/02/14 04:56:05;;;;;;;17.40;8.17;;;4.60;97.30;;;;;;5059611;28;20297;-84
2023/02/14 04:58:30;;;;;;;5.97;4.50;;;4.60;97.30;;;;;;5077047;28;20839;-84
2023/02/14 05:00:56;;;;;;;4.13;3.70;;;4.60;97.30;;;;;;5059255;28;21032;-83
2023/02/14 05:03:21;;;;;;;22.03;4.70;;;4.60;97.30;;;;;;5059406;28;20163;-84
2023/02/14 05:05:47;;;;;;;5.03;4.57;;;4.60;97.30;;;;;;5059123;28;20677;-84
2023/02/14 05:08:15;;;;;;;9.00;4.43;;;4.60;97.30;;;;;;5058950;28;20184;-84
2023/02/14 05:10:41;;;;;;;13.40;6.47;;;4.60;97.30;;;;;;5058853;28;20551;-84
2023/02/14 05:13:06;;;;;;;9.30;5.67;;;4.60;97.30;;;;;;5077765;28;20454;-84
2023/02/14 05:15:32;;;;;;;6.60;5.20;;;4.60;97.30;;;;;;5076854;28;20203;-84
2023/02/14 05:18:00;;;;;;;28.53;8.70;;;4.50;97.30;;;;;;5058465;28;20220;-84
2023/02/14 05:20:27;;;;;;;11.33;6.47;;;4.50;97.30;;;;;;5058233;28;20186;-84
2023/02/14 05:22:52;;;;;;;12.07;6.43;;;4.50;97.30;;;;;;5059384;28;20432;-83
2023/02/14 05:25:18;;;;;;;10.53;3.53;;;4.50;97.30;;;;;;5057706;28;20984;-82
2023/02/14 05:27:43;;;;;;;21.53;3.83;;;4.50;97.30;;;;;;5058167;28;20183;-85
2023/02/14 05:30:10;;;;;;;11.50;4.30;;;4.50;97.30;;;;;;5058379;28;20269;-84
2023/02/14 05:32:35;;;;;;;5.93;4.33;;;4.50;97.30;;;;;;5076550;28;20190;-83
2023/02/14 05:35:01;;;;;;;11.50;5.70;;;4.40;97.30;;;;;;5057772;28;20417;-84
2023/02/14 05:37:26;;;;;;;8.20;4.73;;;4.40;97.30;;;;;;5058544;28;20210;-84
2023/02/14 05:39:52;;;;;;;10.37;6.80;;;4.40;97.30;;;;;;5058653;28;20406;-84
2023/02/14 05:42:17;;;;;;;10.80;3.30;;;4.40;97.30;;;;;;5076795;28;20252;-83
2023/02/14 05:44:43;;;;;;;11.23;5.57;;;4.40;97.30;;;;;;5058909;28;20181;-84
2023/02/14 05:47:08;;;;;;;12.13;7.67;;;4.30;97.30;;;;;;5058326;28;20234;-83
2023/02/14 05:49:34;;;;;;;12.40;6.03;;;4.30;97.30;;;;;;5058028;28;20183;-84
2023/02/14 05:52:00;;;;;;;9.87;5.63;;;4.30;97.30;;;;;;5076708;28;20167;-83
2023/02/14 05:54:25;;;;;;;7.67;3.73;;;4.30;97.30;;;;;;5058095;28;20417;-84
2023/02/14 05:56:51;;;;;;;11.20;4.57;;;4.30;97.30;;;;;;5057913;28;20195;-84
2023/02/14 05:59:17;;;;;;;5.93;5.63;;;4.20;97.30;;;;;;5057328;28;20244;-85
2023/02/14 06:01:42;;;;;;;7.30;3.50;;;4.20;97.30;;;;;;5057274;28;20167;-84
2023/02/14 06:04:07;;;;;;;9.13;6.20;;;4.20;97.30;;;;;;5056866;28;20175;-85
2023/02/14 06:06:33;;;;;;;19.27;9.07;;;4.20;97.30;;;;;;5055945;28;20215;-84
2023/02/14 06:08:58;;;;;;;18.47;5.80;;;4.10;97.30;;;;;;5075184;28;20183;-84
2023/02/14 06:11:24;;;;;;;8.30;6.90;;;4.10;97.30;;;;;;5056982;28;20229;-84
2023/02/14 06:13:49;;;;;;;5.30;4.30;;;4.10;97.30;;;;;;5056849;28;20175;-84
2023/02/14 06:16:15;;;;;;;16.03;6.07;;;4.10;97.30;;;;;;5055722;28;20203;-83
2023/02/14 06:18:40;;;;;;;19.03;4.87;;;4.10;97.30;;;;;;5056060;28;20704;-84
2023/02/14 06:21:06;;;;;;;5.27;4.60;;;4.10;97.30;;;;;;5055459;28;20274;-84
2023/02/14 06:23:31;;;;;;;8.07;4.10;;;4.10;97.30;;;;;;5056169;28;20635;-84
2023/02/14 06:25:57;;;;;;;9.20;4.27;;;4.10;97.30;;;;;;5055289;28;20210;-86
2023/02/14 06:28:22;;;;;;;5.93;5.63;;;4.10;97.30;;;;;;5055148;28;20433;-84
2023/02/14 06:30:48;;;;;;;10.00;4.20;;;4.10;97.30;;;;;;5056204;28;20187;-86
2023/02/14 06:33:13;;;;;;;6.43;5.17;;;4.10;97.30;;;;;;5056382;28;20658;-85
2023/02/14 06:35:39;;;;;;;15.13;4.93;;;4.10;97.30;;;;;;5056354;28;20230;-85
2023/02/14 06:38:04;;;;;;;10.53;5.17;;;4.00;97.30;;;;;;5060420;28;20198;-85
2023/02/14 06:40:30;;;;;;;13.27;5.43;;;4.00;97.30;;;;;;5063336;28;20199;-85
2023/02/14 06:42:55;;;;;;;6.37;3.70;;;4.00;97.30;;;;;;5060090;28;20179;-84
2023/02/14 06:45:21;;;;;;;9.67;5.33;;;4.00;97.30;;;;;;5060240;28;20206;-84
2023/02/14 06:47:46;;;;;;;9.67;6.80;;;4.00;97.30;;;;;;5050467;28;20250;-85
2023/02/14 06:50:12;;;;;;;17.53;7.00;;;4.00;97.30;;;;;;5059562;28;20186;-85
2023/02/14 06:52:38;;;;;;;6.63;3.97;;;4.00;97.30;;;;;;5059407;28;20744;-85
2023/02/14 06:55:04;;;;;;;9.10;6.40;;;4.00;97.30;;;;;;5059619;28;20296;-85
2023/02/14 06:57:32;;;;;;;13.30;6.60;;;4.00;97.30;;;;;;5059478;28;20496;-84
2023/02/14 07:00:00;;;;;;;13.43;5.07;;;4.00;97.30;;;;;;5058954;28;20566;-84
2023/02/14 07:02:25;;;;;;;10.53;4.27;;;4.00;97.30;;;;;;5077914;28;20425;-83
2023/02/14 07:04:51;;;;;;;10.50;7.10;;;4.00;97.30;;;;;;5058762;28;20843;-84
2023/02/14 07:07:16;;;;;;;14.00;7.23;;;4.00;97.30;;;;;;5058276;28;20238;-84
2023/02/14 07:09:42;;;;;;;7.30;3.87;;;4.10;97.30;;;;;;5058441;28;20622;-85
2023/02/14 07:12:07;;;;;;;16.67;6.63;;;4.10;97.30;;;;;;5058117;28;20220;-85
2023/02/14 07:14:32;;;;;;;8.77;5.97;;;4.10;97.30;;;;;;5058196;28;20190;-84
2023/02/14 07:16:58;;;;;;;7.90;4.27;;;4.10;97.30;;;;;;5076588;28;20203;-84
2023/02/14 07:19:24;;;;;;;9.10;5.47;;;4.10;97.30;;;;;;5058969;28;20191;-84
2023/02/14 07:21:49;;;;;;;4.90;4.63;;;4.10;97.30;;;;;;5058442;28;20555;-85
2023/02/14 07:24:14;;;;;;;4.60;3.30;;;4.10;97.30;;;;;;5058585;28;20187;-84
2023/02/14 07:26:40;;;;;;;7.00;4.60;;;4.20;97.30;;;;;;5077222;28;20274;-84
2023/02/14 07:29:06;;;;;;;12.00;5.87;;;4.20;97.30;;;;;;5058888;28;20260;-82
2023/02/14 07:31:31;;;;;;;6.60;4.40;;;4.20;97.30;;;;;;5058126;28;20692;-84
2023/02/14 07:33:59;;;;;;;2.90;2.70;;;4.30;97.30;;;;;;5058582;28;20183;-85
2023/02/14 07:36:25;;;;;;;7.93;3.63;;;4.30;97.30;;;;;;5057181;28;20271;-83
2023/02/14 07:38:50;;;;;;;6.60;5.30;;;4.30;97.30;;;;;;5055700;28;20464;-84
2023/02/14 07:41:16;;;;;;;5.60;3.90;;;4.30;97.30;;;;;;5056411;28;20187;-84
2023/02/14 07:43:41;;;;;;;6.00;5.70;;;4.30;97.30;;;;;;5056861;28;20266;-84
2023/02/14 07:46:07;;;;;;;6.00;5.20;;;4.40;97.30;;;;;;5057464;28;20681;-84
2023/02/14 07:48:33;;;;;;;11.67;6.33;;;4.40;97.30;;;;;;5055179;28;20232;-85
2023/02/14 07:50:58;;;;;;;3.20;3.00;;;4.40;97.30;;;;;;5050273;28;20202;-84
2023/02/14 07:53:24;;;;;;;5.03;4.33;;;4.40;97.30;;;;;;5056470;28;20313;-85
2023/02/14 07:55:52;;;;;;;4.63;3.47;;;4.40;97.30;;;;;;5051031;28;20707;-85
2023/02/14 07:58:18;;;;;;;6.57;4.07;;;4.40;97.30;;;;;;5074343;28;20206;-86
2023/02/14 08:00:45;;;;;;;9.77;4.50;;;4.50;97.30;;;;;;5052898;28;20424;-85
2023/02/14 08:03:11;;;;;;;3.60;3.40;;;4.50;97.30;;;;;;5049428;28;20788;-85
2023/02/14 08:05:37;;;;;;;4.00;3.57;;;4.50;97.30;;;;;;5054710;28;20441;-86
2023/02/14 08:08:02;;;;;;;2.77;2.57;;;4.60;97.30;;;;;;5054847;28;20843;-86
2023/02/14 08:10:28;;;;;;;7.53;3.37;;;4.60;97.30;;;;;;5055670;28;20521;-85
2023/02/14 08:12:59;;;;;;;11.83;5.50;;;4.70;97.30;;;;;;5055765;28;20171;-86
2023/02/14 08:18:18;;;;;;;4.43;3.90;;;4.70;97.30;;;;;;5075370;28;20564;-86
2023/02/14 08:20:47;;;;;;;15.43;6.80;;;4.80;97.30;;;;;;5056220;28;20536;-85
2023/02/14 08:23:13;;;;;;;2.63;2.43;;;4.80;97.30;;;;;;5073769;28;20421;-85
2023/02/14 08:25:39;;;;;;;4.17;3.07;;;4.80;97.30;;;;;;5054995;28;20492;-86
2023/02/14 08:28:05;;;;;;;2.90;2.70;;;4.90;97.30;;;;;;5053939;28;20183;-84
2023/02/14 08:30:31;;;;;;;8.20;5.90;;;5.10;97.30;;;;;;5053966;28;20186;-86
2023/02/14 08:32:56;;;;;;;5.83;3.13;;;5.30;97.30;;;;;;5055022;28;20432;-86
2023/02/14 08:35:22;;;;;;;6.23;4.70;;;5.30;97.30;;;;;;5055067;28;20441;-84
2023/02/14 08:37:47;;;;;;;7.10;3.57;;;5.30;97.30;;;;;;5054768;28;20233;-86
2023/02/14 08:40:13;;;;;;;5.63;4.50;;;5.30;97.30;;;;;;5054764;28;20206;-85
2023/02/14 08:42:38;;;;;;;12.23;5.27;;;5.30;97.30;;;;;;5054633;28;20175;-86
2023/02/14 08:45:04;;;;;;;9.27;4.17;;;5.30;97.30;;;;;;5054352;28;20593;-86
2023/02/14 08:47:34;;;;;;;3.33;3.10;;;5.40;97.30;;;;;;5054258;28;20230;-86
2023/02/14 08:50:01;;;;;;;5.77;3.67;;;5.40;97.30;;;;;;5054308;28;20417;-86
2023/02/14 08:52:27;;;;;;;6.33;4.03;;;5.40;97.30;;;;;;5046462;28;20980;-84
2023/02/14 08:54:52;;;;;;;4.57;3.47;;;5.40;97.30;;;;;;5046538;28;20413;-86
2023/02/14 08:57:18;;;;;;;13.60;5.10;;;5.50;97.30;;;;;;5054597;28;20653;-85
2023/02/14 08:59:44;;;;;;;7.20;5.53;;;5.50;97.30;;;;;;5053615;28;20184;-86
2023/02/14 09:02:12;;;;;;;9.43;5.33;;;5.60;97.30;;;;;;5054525;28;20633;-84
2023/02/14 09:04:38;;;;;;;6.50;4.30;;;5.60;97.30;;;;;;5072062;28;20541;-86
2023/02/14 09:07:04;;;;;;;5.53;2.97;;;5.60;97.30;;;;;;5054572;28;20937;-86
2023/02/14 09:09:31;;;;;;;7.80;6.90;;;5.70;97.30;;;;;;5053939;28;20183;-86
2023/02/14 09:11:56;;;;;;;8.73;3.10;;;5.80;97.30;;;;;;5054203;28;20421;-84
2023/02/14 09:14:23;;;;;;;3.87;3.67;;;5.90;97.30;;;;;;5053990;28;20507;-84
2023/02/14 09:16:49;;;;;;;6.30;3.40;;;6.00;97.30;;;;;;5054433;28;20203;-84
2023/02/14 09:19:14;;;;;;;10.93;4.80;;;6.00;97.30;;;;;;5053797;28;20417;-84
2023/02/14 09:21:40;;;;;;;5.80;3.97;;;6.10;97.30;;;;;;5053802;28;20418;-84
2023/02/14 09:24:05;;;;;;;9.10;5.73;;;6.20;97.30;;;;;;5053752;28;20178;-84
2023/02/14 09:26:31;;;;;;;3.70;3.50;;;6.20;97.30;;;;;;5053178;28;20195;-86
2023/02/14 09:28:57;;;;;;;5.27;4.13;;;6.30;97.30;;;;;;5053333;28;20186;-86
2023/02/14 09:31:24;;;;;;;3.80;3.63;;;6.30;97.30;;;;;;5072061;28;20254;-86
2023/02/14 09:36:34;;;;;;;15.13;4.43;;;6.40;97.30;;;;;;5071944;28;20614;-86
2023/02/14 09:39:00;;;;;;;8.93;4.43;;;6.50;97.30;;;;;;5053386;28;21042;-86
2023/02/14 09:41:28;;;;;;;6.43;4.60;;;6.50;97.30;;;;;;5053398;28;20261;-86
2023/02/14 09:44:09;;;;;;;11.87;3.77;;;6.50;97.30;;;;;;5052675;28;20191;-84
2023/02/14 09:46:41;;;;;;;5.27;4.97;;;6.60;97.30;;;;;;5052960;28;20480;-85
2023/02/14 09:49:13;;;;;;;7.57;5.27;;;6.70;97.30;;;;;;5053297;28;20435;-84
2023/02/14 09:51:47;;;;;;;10.43;5.17;;;6.80;97.30;;;;;;5053448;28;20890;-84
2023/02/14 09:54:17;;;;;;;6.60;5.73;;;6.90;97.30;;;;;;5053635;28;20471;-86
2023/02/14 09:57:01;;;;;;;5.03;3.37;;;6.90;97.30;;;;;;5053407;28;20446;-86
2023/02/14 09:59:38;;;;;;;6.87;4.30;;;7.00;97.30;;;;;;5073004;28;20421;-83
2023/02/14 10:02:29;;;;;;;13.57;6.37;;;7.10;97.30;;;;;;5066019;28;20410;-84
2023/02/14 10:05:12;;;;;;;5.87;4.40;;;7.10;97.30;;;;;;5054868;28;21016;-86
2023/02/14 10:08:16;;;;;;;8.90;4.57;;;7.20;97.30;;;;;;5067161;28;20493;-86
2023/02/14 10:10:43;;;;;;;5.40;3.60;;;7.30;97.30;;;;;;5053182;28;20421;-86
2023/02/14 10:13:32;;;;;;;9.60;4.17;;;7.40;97.30;;;;;;5057204;28;20414;-84
2023/02/14 10:16:04;;;;;;;9.43;6.90;;;7.50;97.30;;;;;;5057317;28;20433;-84
2023/02/14 10:18:45;;;;;;;6.03;3.80;;;7.50;97.30;;;;;;5056978;28;20552;-84
2023/02/14 10:21:30;;;;;;;7.23;4.67;;;7.60;97.30;;;;;;5057763;28;20410;-86
2023/02/14 10:24:02;;;;;;;8.47;5.43;;;7.70;97.30;;;;;;5060596;28;20469;-86
2023/02/14 10:26:40;;;;;;;7.63;3.80;;;7.80;97.30;;;;;;5076415;28;20440;-87
2023/02/14 10:29:11;;;;;;;5.20;4.90;;;7.90;97.30;;;;;;5071881;28;20435;-84
2023/02/14 10:31:39;;;;;;;26.87;4.60;;;7.90;97.30;;;;;;5078926;28;20548;-85
2023/02/14 10:34:18;;;;;;;5.23;4.53;;;8.00;97.30;;;;;;5079468;28;20455;-84
2023/02/14 10:37:03;;;;;;;4.70;3.73;;;8.10;97.30;;;;;;5077652;28;20493;-84
2023/02/14 10:39:58;;;;;;;7.13;2.90;;;8.20;97.30;;;;;;5079331;28;20417;-85
2023/02/14 10:42:42;;;;;;;6.43;3.63;;;8.30;97.30;;;;;;5078759;28;20441;-84
2023/02/14 10:45:21;;;;;;;6.83;4.10;;;8.40;97.30;;;;;;5096540;28;20413;-85
2023/02/14 10:48:12;;;;;;;8.27;6.50;;;8.50;97.30;;;;;;5078313;28;20484;-85
2023/02/14 10:50:55;;;;;;;5.93;4.60;;;8.60;97.30;;;;;;5078241;28;20424;-84
2023/02/14 10:54:00;;;;;;;5.33;3.13;;;8.60;97.30;;;;;;5078833;28;20468;-84
2023/02/14 10:56:34;;;;;;;4.70;3.53;;;8.80;97.30;;;;;;5072348;28;20468;-84
2023/02/14 10:59:16;;;;;;;4.93;3.37;;;8.90;97.30;;;;;;5068986;28;20535;-84
2023/02/14 11:01:42;;;;;;;11.13;4.23;;;9.00;97.30;;;;;;5077965;28;20398;-84
2023/02/14 11:04:11;;;;;;;10.40;3.23;;;9.00;97.30;;;;;;5077174;28;20426;-84
2023/02/14 11:06:37;;;;;;;11.53;3.00;;;9.00;97.30;;;;;;5077905;28;20433;-84
2023/02/14 11:09:03;;;;;;;5.70;3.23;;;9.00;97.30;;;;;;5078288;28;20421;-85
2023/02/14 11:11:44;;;;;;;3.97;2.53;;;9.10;97.30;;;;;;5077619;28;20709;-85
2023/02/14 11:14:30;;;;;;;18.13;4.47;;;9.30;97.30;;;;;;5077330;28;20179;-86
2023/02/14 11:16:58;;;;;;;3.17;2.93;;;9.50;97.30;;;;;;5077083;28;20441;-87
2023/02/14 11:19:33;;;;;;;6.17;3.97;;;9.80;97.30;;;;;;5076412;28;20420;-84
2023/02/14 11:22:00;;;;;;;6.57;3.30;;;10.10;97.30;;;;;;5077778;28;20409;-85
2023/02/14 11:24:41;;;;;;;11.40;4.20;;;10.20;97.30;;;;;;5076468;28;20412;-84
2023/02/14 11:27:09;;;;;;;9.23;3.70;;;10.40;97.30;;;;;;5070512;28;20425;-85
2023/02/14 11:29:43;;;;;;;5.87;3.97;;;10.50;97.30;;;;;;5077840;28;20421;-83
2023/02/14 11:32:12;;;;;;;3.60;3.40;;;10.50;97.30;;;;;;5077637;28;20441;-84
2023/02/14 11:34:46;;;;;;;4.73;4.40;;;10.50;97.30;;;;;;5077316;28;20448;-84
2023/02/14 11:37:35;;;;;;;6.30;3.90;;;10.60;97.30;;;;;;5078712;28;20489;-85
2023/02/14 11:40:04;;;;;;;9.97;6.00;;;10.60;97.30;;;;;;5078122;28;20497;-84
2023/02/14 11:42:42;;;;;;;13.40;6.07;;;10.50;97.30;;;;;;5078468;28;20444;-85
2023/02/14 11:45:26;;;;;;;7.17;3.73;;;10.50;97.30;;;;;;5071244;28;20412;-87
2023/02/14 11:48:15;;;;;;;8.07;6.83;;;10.50;97.30;;;;;;5076910;28;20533;-85
2023/02/14 11:50:43;;;;;;;5.50;5.00;;;10.50;97.30;;;;;;5077820;28;20408;-85
2023/02/14 11:53:11;;;;;;;4.50;2.53;;;10.50;97.30;;;;;;5095463;28;20450;-87
2023/02/14 11:55:38;;;;;;;4.77;3.20;;;10.60;97.30;;;;;;5077589;28;20437;-85
2023/02/14 11:58:06;;;;;;;8.33;5.20;;;10.70;97.30;;;;;;5078306;28;20469;-85
2023/02/14 12:00:32;;;;;;;4.97;3.33;;;10.90;97.30;;;;;;5087135;28;20414;-85
2023/02/14 12:03:00;;;;;;;10.13;4.73;;;11.10;97.30;;;;;;5076337;28;20427;-85
2023/02/14 12:05:34;;;;;;;9.93;5.43;;;11.20;97.30;;;;;;5076550;28;20497;-85
2023/02/14 12:08:02;;;;;;;6.80;3.73;;;11.40;97.20;;;;;;5095344;28;20428;-85
2023/02/14 12:10:30;;;;;;;8.37;4.27;;;11.50;97.10;;;;;;5076360;28;20409;-85
2023/02/14 12:13:07;;;;;;;5.30;3.80;;;11.60;97.00;;;;;;5077753;28;20421;-85
2023/02/14 12:15:41;;;;;;;6.33;3.80;;;11.60;96.30;;;;;;5070224;28;20463;-85
2023/02/14 12:18:46;;;;;;;7.57;4.00;;;11.70;96.50;;;;;;5047972;28;20507;-85
2023/02/14 12:21:42;;;;;;;7.37;4.90;;;11.70;97.10;;;;;;5049998;28;20417;-85
2023/02/14 12:24:29;;;;;;;4.57;3.80;;;11.80;96.30;;;;;;5047261;28;20432;-85
2023/02/14 12:27:09;;;;;;;8.20;3.87;;;11.80;95.60;;;;;;5054216;28;20460;-84
2023/02/14 12:29:40;;;;;;;19.97;5.77;;;12.00;96.00;;;;;;5054808;28;20430;-85
2023/02/14 12:32:26;;;;;;;4.70;3.20;;;12.00;95.00;;;;;;5046051;28;20770;-85
2023/02/14 12:35:15;;;;;;;4.43;4.13;;;11.90;94.90;;;;;;5054135;28;20444;-85
2023/02/14 12:38:15;;;;;;;4.27;4.00;;;11.70;94.70;;;;;;5053942;28;20453;-85
2023/02/14 12:41:07;;;;;;;11.97;7.47;;;11.70;95.20;;;;;;5053742;28;20429;-84
2023/02/14 12:43:42;;;;;;;8.20;4.73;;;11.70;95.60;;;;;;5053890;28;20854;-85
2023/02/14 12:46:29;;;;;;;9.30;3.13;;;11.80;95.70;;;;;;5049797;28;20464;-85
2023/02/14 12:49:43;;;;;;;6.60;5.37;;;11.80;95.00;;;;;;5070536;28;20552;-85
2023/02/14 12:52:23;;;;;;;6.13;3.47;;;11.90;95.20;;;;;;5064732;28;20424;-85
2023/02/14 12:55:27;;;;;;;12.23;3.90;;;12.10;94.70;;;;;;5069733;28;20832;-85
2023/02/14 12:58:14;;;;;;;10.97;5.47;;;12.20;94.30;;;;;;5053710;28;20472;-85
2023/02/14 13:01:21;;;;;;;7.07;4.57;;;12.10;94.10;;;;;;5071555;28;20504;-84
2023/02/14 13:04:21;;;;;;;9.33;5.87;;;11.90;94.40;;;;;;5071493;28;20478;-85
2023/02/14 13:07:00;;;;;;;3.20;3.00;;;11.90;94.80;;;;;;5048205;28;20443;-84
2023/02/14 13:09:33;;;;;;;7.70;5.47;;;11.90;94.90;;;;;;5071404;28;20417;-85
2023/02/14 13:12:33;;;;;;;7.67;5.47;;;12.00;94.50;;;;;;5053640;28;20795;-85
2023/02/14 13:15:02;;;;;;;13.30;4.33;;;12.10;94.00;;;;;;5071454;28;20420;-85
2023/02/14 13:17:43;;;;;;;9.57;6.40;;;12.10;93.60;;;;;;5053362;28;20469;-85
2023/02/14 13:20:24;;;;;;;10.33;4.67;;;11.90;93.80;;;;;;5045754;28;20433;-85
2023/02/14 13:22:51;;;;;;;22.57;3.83;;;11.90;94.30;;;;;;5053255;28;20413;-85
2023/02/14 13:25:32;;;;;;;8.77;4.03;;;11.70;94.20;;;;;;5053358;28;20430;-85
2023/02/14 13:28:05;;;;;;;6.87;3.33;;;11.80;94.60;;;;;;5053263;28;20429;-85
2023/02/14 13:30:33;;;;;;;5.17;4.87;;;12.00;94.10;;;;;;5053435;28;20424;-85
2023/02/14 13:33:17;;;;;;;16.90;4.80;;;12.10;93.60;;;;;;5053007;28;20487;-85